FranceFixed distance
Luchon Aneto Trail - L'Ultra Lat
9–10 Jul2022
Distance
85km
Finishers
170157 men13 women
Winning time
10:27:06h
Median pace
5.27km/h
Pace distribution
170 finishers · 4.37–8.13 km/h · mean 5.49
Every finisher ran the same 85 km course, so these paces are directly comparable.
Histogram of finisher pace. 170 finishers ranged from 4.37 to 8.13 kilometres per hour, with a mean of 5.49 and a median of 5.27. The busiest band is 4.5 to 5.0 kilometres per hour, with 48 finishers.
Results
Ranks 101–150 of 170
| Rank | Runner | Time | Pace | Cat. | Placing |
|---|---|---|---|---|---|
| 101 | Foulées de Cleguer | 16:32:38h | 5.14 | M35 | 95th M · 20th M35 |
| 102 | Les Baladins De Jardres | 16:33:02h | 5.14 | M45 | 96th M · 9th M45 |
| 103 | Asptt/Lille Métropole ... | 16:34:17h | 5.13 | W40 | 7th F · 2nd W40 |
| 104 | 16:41:41h | 5.09 | M45 | 97th M · 10th M45 | |
| 105 | *Anglet | 16:43:51h | 5.08 | W35 | 8th F · 2nd W35 |
| 105 | *Casteljaloux | 16:43:51h | 5.08 | M50 | 98th M · 4th M50 |
| 107 | Sport Nature Chauvigny 86 | 16:47:12h | 5.06 | M35 | 99th M · 21st M35 |
| 108 | CA Pictave | 16:51:50h | 5.04 | M40 | 100th M · 18th M40 |
| 109 | Dchesnaye Trail | 16:51:58h | 5.04 | M40 | 101st M · 19th M40 |
| 110 | 16:52:40h | 5.04 | M23 | 102nd M · 37th M23 | |
| 111 | LA Compagnie du LIT | 16:53:02h | 5.03 | M45 | 103rd M · 11th M45 |
| 112 | *Portet-Sur-Garonne | 16:53:16h | 5.03 | M45 | 104th M · 12th M45 |
| 113 | 16:54:09h | 5.03 | M23 | 105th M · 38th M23 | |
| 114 | Club Alpin Francais Ta... | 16:55:29h | 5.02 | M40 | 106th M · 20th M40 |
| 115 | CAP Nature Beaulieu | 16:56:47h | 5.02 | M40 | 107th M · 21st M40 |
| 116 | les Éperviers Daher | 16:59:15h | 5.00 | M40 | 108th M · 22nd M40 |
| 117 | 16:59:17h | 5.00 | M23 | 109th M · 39th M23 | |
| 118 | *Toulouse | 17:08:22h | 4.96 | M45 | 110th M · 13th M45 |
| 119 | les Trotteurs du Pinail | 17:13:14h | 4.94 | M23 | 111th M · 40th M23 |
| 120 | Sport Nature Chamadelle | 17:15:36h | 4.92 | M40 | 112th M · 23rd M40 |
| 121 | Sensasyon Raid | 17:19:23h | 4.91 | M40 | 113th M · 24th M40 |
| 122 | *Puybegon | 17:19:35h | 4.91 | M40 | 114th M · 25th M40 |
| 123 | 17:20:40h | 4.90 | M23 | 115th M · 41st M23 | |
| 124 | *Valence-Sur-Baïse | 17:20:41h | 4.90 | M23 | 116th M · 42nd M23 |
| 125 | Braud AC | 17:21:59h | 4.89 | M23 | 117th M · 43rd M23 |
| 126 | Chullanka Merignac/Urb... | 17:22:29h | 4.89 | M23 | 118th M · 44th M23 |
| 127 | Tri Team Caraib | 17:28:23h | 4.87 | W45 | 9th F · 3rd W45 |
| 128 | *Druelle Balsac | 17:36:14h | 4.83 | M40 | 119th M · 26th M40 |
| 129 | *Valence D'Agen | 17:36:24h | 4.83 | M45 | 120th M · 14th M45 |
| 130 | *Bressuire | 17:42:55h | 4.80 | M35 | 121st M · 22nd M35 |
| 131 | Team 16 Club Multispor... | 17:48:19h | 4.77 | M35 | 122nd M · 23rd M35 |
| 132 | *Soues | 17:48:24h | 4.77 | M40 | 123rd M · 27th M40 |
| 133 | Running Angers | 17:49:37h | 4.77 | M45 | 124th M · 15th M45 |
| 134 | 17:49:46h | 4.77 | W23 | 10th F · 3rd W23 | |
| 134 | Baztandarrak | 17:49:46h | 4.77 | M23 | 125th M · 45th M23 |
| 136 | Liloubel'Ange/As des B... | 17:51:03h | 4.76 | M40 | 126th M · 28th M40 |
| 137 | 17:53:00h | 4.75 | W23 | 11th F · 4th W23 | |
| 138 | 15 EME Parallèle | 17:53:07h | 4.75 | M45 | 127th M · 16th M45 |
| 139 | *Millau | 17:55:34h | 4.74 | M35 | 128th M · 24th M35 |
| 140 | AS des Bleuets Labatut... | 17:57:27h | 4.73 | M40 | 129th M · 29th M40 |
| 141 | MT 31 | 17:58:34h | 4.73 | M45 | 130th M · 17th M45 |
| 142 | AB Trail | 18:02:04h | 4.71 | M45 | 131st M · 18th M45 |
| 143 | Spirit of Run | 18:06:37h | 4.69 | M45 | 132nd M · 19th M45 |
| 144 | *Saint-Michel-Le-Cloucq | 18:08:18h | 4.69 | M45 | 133rd M · 20th M45 |
| 145 | 18:08:19h | 4.69 | M45 | 134th M · 21st M45 | |
| 145 | Mmac | 18:08:19h | 4.69 | M45 | 134th M · 21st M45 |
| 147 | *Saint-Symphorien | 18:08:20h | 4.69 | M45 | 136th M · 23rd M45 |
| 148 | Assa | 18:16:02h | 4.65 | M35 | 137th M · 25th M35 |
| 149 | Banque Courtois/Team B... | 18:16:49h | 4.65 | M45 | 138th M · 24th M45 |
| 150 | *Boé | 18:18:54h | 4.64 | M45 | 139th M · 25th M45 |
- 101Foulées de Cleguer95th M · 20th M35Time16:32:38hPace5.14Cat.M35
- 102Les Baladins De Jardres96th M · 9th M45Time16:33:02hPace5.14Cat.M45
- 103Asptt/Lille Métropole ...7th F · 2nd W40Time16:34:17hPace5.13Cat.W40
- 10497th M · 10th M45Time16:41:41hPace5.09Cat.M45
- 105*Anglet8th F · 2nd W35Time16:43:51hPace5.08Cat.W35
- 105*Casteljaloux98th M · 4th M50Time16:43:51hPace5.08Cat.M50
- 107Sport Nature Chauvigny 8699th M · 21st M35Time16:47:12hPace5.06Cat.M35
- 108CA Pictave100th M · 18th M40Time16:51:50hPace5.04Cat.M40
- 109Dchesnaye Trail101st M · 19th M40Time16:51:58hPace5.04Cat.M40
- 110102nd M · 37th M23Time16:52:40hPace5.04Cat.M23
- 111LA Compagnie du LIT103rd M · 11th M45Time16:53:02hPace5.03Cat.M45
- 112*Portet-Sur-Garonne104th M · 12th M45Time16:53:16hPace5.03Cat.M45
- 113105th M · 38th M23Time16:54:09hPace5.03Cat.M23
- 114Club Alpin Francais Ta...106th M · 20th M40Time16:55:29hPace5.02Cat.M40
- 115CAP Nature Beaulieu107th M · 21st M40Time16:56:47hPace5.02Cat.M40
- 116les Éperviers Daher108th M · 22nd M40Time16:59:15hPace5.00Cat.M40
- 117109th M · 39th M23Time16:59:17hPace5.00Cat.M23
- 118*Toulouse110th M · 13th M45Time17:08:22hPace4.96Cat.M45
- 119les Trotteurs du Pinail111th M · 40th M23Time17:13:14hPace4.94Cat.M23
- 120Sport Nature Chamadelle112th M · 23rd M40Time17:15:36hPace4.92Cat.M40
- 121Sensasyon Raid113th M · 24th M40Time17:19:23hPace4.91Cat.M40
- 122*Puybegon114th M · 25th M40Time17:19:35hPace4.91Cat.M40
- 123115th M · 41st M23Time17:20:40hPace4.90Cat.M23
- 124*Valence-Sur-Baïse116th M · 42nd M23Time17:20:41hPace4.90Cat.M23
- 125Braud AC117th M · 43rd M23Time17:21:59hPace4.89Cat.M23
- 126Chullanka Merignac/Urb...118th M · 44th M23Time17:22:29hPace4.89Cat.M23
- 127Tri Team Caraib9th F · 3rd W45Time17:28:23hPace4.87Cat.W45
- 128*Druelle Balsac119th M · 26th M40Time17:36:14hPace4.83Cat.M40
- 129*Valence D'Agen120th M · 14th M45Time17:36:24hPace4.83Cat.M45
- 130*Bressuire121st M · 22nd M35Time17:42:55hPace4.80Cat.M35
- 131Team 16 Club Multispor...122nd M · 23rd M35Time17:48:19hPace4.77Cat.M35
- 132*Soues123rd M · 27th M40Time17:48:24hPace4.77Cat.M40
- 133Running Angers124th M · 15th M45Time17:49:37hPace4.77Cat.M45
- 13410th F · 3rd W23Time17:49:46hPace4.77Cat.W23
- 134Baztandarrak125th M · 45th M23Time17:49:46hPace4.77Cat.M23
- 136Liloubel'Ange/As des B...126th M · 28th M40Time17:51:03hPace4.76Cat.M40
- 13711th F · 4th W23Time17:53:00hPace4.75Cat.W23
- 13815 EME Parallèle127th M · 16th M45Time17:53:07hPace4.75Cat.M45
- 139*Millau128th M · 24th M35Time17:55:34hPace4.74Cat.M35
- 140AS des Bleuets Labatut...129th M · 29th M40Time17:57:27hPace4.73Cat.M40
- 141MT 31130th M · 17th M45Time17:58:34hPace4.73Cat.M45
- 142AB Trail131st M · 18th M45Time18:02:04hPace4.71Cat.M45
- 143Spirit of Run132nd M · 19th M45Time18:06:37hPace4.69Cat.M45
- 144*Saint-Michel-Le-Cloucq133rd M · 20th M45Time18:08:18hPace4.69Cat.M45
- 145134th M · 21st M45Time18:08:19hPace4.69Cat.M45
- 145Mmac134th M · 21st M45Time18:08:19hPace4.69Cat.M45
- 147*Saint-Symphorien136th M · 23rd M45Time18:08:20hPace4.69Cat.M45
- 148Assa137th M · 25th M35Time18:16:02hPace4.65Cat.M35
- 149Banque Courtois/Team B...138th M · 24th M45Time18:16:49hPace4.65Cat.M45
- 150*Boé139th M · 25th M45Time18:18:54hPace4.64Cat.M45
Showing ranks 101–150 of 170